CheckWX is a tool to help pilots better visualize weather data.  It is not intended as a substitute for an official pre-flight weather briefing.

18:38:43 UTC

KINF METAR
Inverness Airport
Inverness, Florida, USA
Current

24 mins ago

KINF 171815Z AUTO 27004KT 7SM SCT035 27/21 A2994 RMK AO2
Observed
Oct-17 @ 18:15 UTC
Wind
  • 270° at 4 KTS
Visibility
7 SM
Flight Rules
VFR
Cloud Levels
  • Scattered at 3,500' AGL
Temperature
27°C / 81°F
Dewpoint
21°C / 70°F
Heat Index
29°C / 85°F
Humidity
70%
Altimeter
29.94" Hg
Pressure
1013.92 hPa
Previous

44 mins ago

KINF 171755Z AUTO 22003KT 7SM SCT028 BKN035 26/21 A2995 RMK AO2
Observed
Oct-17 @ 17:55 UTC
Wind
  • 220° at 3 KTS
Visibility
7 SM
Flight Rules
VFR
Cloud Levels
  • Scattered at 2,800' AGL
  • Broken at 3,500' AGL
Temperature
26°C / 79°F
Dewpoint
21°C / 70°F
Humidity
74%
Altimeter
29.95" Hg
Pressure
1014.22 hPa
Previous

1 hour ago

KINF 171735Z AUTO 00000KT 7SM SCT026 26/21 A2995 RMK AO2
Observed
Oct-17 @ 17:35 UTC
Visibility
7 SM
Flight Rules
VFR
Cloud Levels
  • Scattered at 2,600' AGL
Temperature
26°C / 79°F
Dewpoint
21°C / 70°F
Humidity
74%
Altimeter
29.95" Hg
Pressure
1014.22 hPa